createdAt,value
2022-08-25T00:01:19.755Z,95583.66
2022-08-25T00:03:47.302Z,95580.13
2022-08-25T00:06:16.060Z,95579.06
2022-08-25T00:08:43.240Z,95581.59
2022-08-25T00:11:16.942Z,95577.81
2022-08-25T00:13:47.445Z,95583.66
2022-08-25T00:16:18.467Z,95591.22
2022-08-25T00:18:49.301Z,95583.09
2022-08-25T00:21:16.348Z,95592.22
2022-08-25T00:23:43.958Z,95573.59
2022-08-25T00:26:12.273Z,95581.47
2022-08-25T00:28:39.061Z,95578.03
2022-08-25T00:31:06.336Z,95580.03
2022-08-25T00:33:33.908Z,95578.59
2022-08-25T00:36:00.734Z,95573.72
2022-08-25T00:38:27.521Z,95578.94
2022-08-25T00:40:54.951Z,95582.06
2022-08-25T00:43:22.576Z,95586.03
2022-08-25T00:45:49.154Z,95583.16
2022-08-25T00:48:15.762Z,95588.84
2022-08-25T00:50:42.313Z,95588.34
2022-08-25T00:53:09.402Z,95590.97
2022-08-25T00:55:40.088Z,95597.53
2022-08-25T00:58:13.338Z,95608.03
2022-08-25T01:00:47.735Z,95603.97
2022-08-25T01:03:15.112Z,95612.56
2022-08-25T01:05:43.608Z,95619.06
2022-08-25T01:08:11.709Z,95621.19
2022-08-25T01:10:45.263Z,95620.09
2022-08-25T01:13:24.011Z,95620.28
2022-08-25T01:15:55.365Z,95617.25
2022-08-25T01:18:23.009Z,95626.44
2022-08-25T01:20:54.839Z,95622.63
2022-08-25T01:23:23.070Z,95626.88
2022-08-25T01:26:09.522Z,95625.25
2022-08-25T01:28:38.033Z,95620.16
2022-08-25T01:31:04.805Z,95623.97
2022-08-25T01:33:51.110Z,95614.69
2022-08-25T01:36:19.352Z,95615.38
2022-08-25T01:38:46.053Z,95608.34
2022-08-25T01:41:12.765Z,95596.00
2022-08-25T01:43:39.358Z,95597.44
2022-08-25T01:46:05.951Z,95592.06
2022-08-25T01:48:32.621Z,95597.44
2022-08-25T01:50:59.350Z,95603.91
2022-08-25T01:53:33.493Z,95608.63
2022-08-25T01:56:09.759Z,95607.81
2022-08-25T01:58:39.848Z,95613.06
2022-08-25T02:01:11.495Z,95611.91
2022-08-25T02:03:41.235Z,95612.41
2022-08-25T02:06:12.377Z,95618.50
2022-08-25T02:08:40.635Z,95621.81
2022-08-25T02:11:11.031Z,95616.59
2022-08-25T02:13:38.030Z,95610.72
2022-08-25T02:16:04.925Z,95603.75
2022-08-25T02:18:31.994Z,95603.75
2022-08-25T02:20:58.659Z,95613.00
2022-08-25T02:23:25.478Z,95609.69
2022-08-25T02:25:52.183Z,95607.81
2022-08-25T02:28:18.748Z,95602.47
2022-08-25T02:30:45.895Z,95599.78
2022-08-25T02:33:12.558Z,95600.53
2022-08-25T02:35:40.966Z,95596.97
2022-08-25T02:38:07.579Z,95597.78
2022-08-25T02:40:34.525Z,95601.34
2022-08-25T02:43:01.105Z,95589.97
2022-08-25T02:45:28.063Z,95602.47
2022-08-25T02:47:54.583Z,95601.97
2022-08-25T02:50:21.137Z,95609.47
2022-08-25T02:52:47.855Z,95609.53
2022-08-25T02:55:14.525Z,95607.66
2022-08-25T02:57:42.186Z,95601.50
2022-08-25T03:00:12.824Z,95603.59
2022-08-25T03:02:39.929Z,95595.81
2022-08-25T03:05:07.993Z,95601.19
2022-08-25T03:07:36.005Z,95595.56
2022-08-25T03:10:15.372Z,95593.69
2022-08-25T03:12:42.834Z,95597.63
2022-08-25T03:15:12.795Z,95601.34
2022-08-25T03:17:40.129Z,95592.72
2022-08-25T03:20:08.066Z,95584.91
2022-08-25T03:22:34.785Z,95588.47
2022-08-25T03:25:02.143Z,95579.53
2022-08-25T03:27:29.337Z,95572.25
2022-08-25T03:29:55.968Z,95569.25
2022-08-25T03:32:22.565Z,95572.19
2022-08-25T03:34:49.134Z,95584.44
2022-08-25T03:37:15.679Z,95581.50
2022-08-25T03:39:42.276Z,95582.00
2022-08-25T03:42:08.794Z,95567.31
2022-08-25T03:44:35.344Z,95575.00
2022-08-25T03:47:01.897Z,95576.72
2022-08-25T03:49:28.437Z,95562.72
2022-08-25T03:51:57.091Z,95560.53
2022-08-25T03:54:26.077Z,95566.38
2022-08-25T03:56:53.193Z,95566.38
2022-08-25T03:59:20.000Z,95577.41
2022-08-25T04:01:52.656Z,95580.50
2022-08-25T04:04:21.380Z,95581.34
2022-08-25T04:06:47.933Z,95575.47
2022-08-25T04:09:14.509Z,95578.09
2022-08-25T04:11:42.724Z,95584.19
2022-08-25T04:14:09.906Z,95584.41
2022-08-25T04:16:42.624Z,95585.03
2022-08-25T04:19:09.818Z,95575.09
2022-08-25T04:21:38.193Z,95577.56
2022-08-25T04:24:06.147Z,95584.34
2022-08-25T04:26:38.865Z,95584.94
2022-08-25T04:29:08.424Z,95579.50
2022-08-25T04:31:35.088Z,95581.13
2022-08-25T04:34:03.863Z,95581.44
2022-08-25T04:36:52.714Z,95587.03
2022-08-25T04:39:21.094Z,95583.28
2022-08-25T04:41:48.971Z,95583.22
2022-08-25T04:44:17.030Z,95579.97
2022-08-25T04:46:43.971Z,95583.97
2022-08-25T04:49:10.507Z,95575.34
2022-08-25T04:51:40.522Z,95575.81
2022-08-25T04:54:10.511Z,95576.16
2022-08-25T04:56:38.934Z,95584.31
2022-08-25T04:59:09.078Z,95576.59
2022-08-25T05:01:36.572Z,95574.28
2022-08-25T05:04:05.941Z,95573.06
2022-08-25T05:06:33.214Z,95573.94
2022-08-25T05:09:01.056Z,95568.69
2022-08-25T05:11:28.655Z,95574.34
2022-08-25T05:13:57.197Z,95569.69
2022-08-25T05:16:26.435Z,95574.31
2022-08-25T05:18:53.684Z,95577.09
2022-08-25T05:21:27.506Z,95576.94
2022-08-25T05:23:58.677Z,95580.31
2022-08-25T05:26:28.376Z,95578.22
2022-08-25T05:28:55.602Z,95586.97
2022-08-25T05:31:24.346Z,95575.06
2022-08-25T05:33:52.785Z,95580.19
2022-08-25T05:36:20.927Z,95593.44
2022-08-25T05:38:47.964Z,95593.03
2022-08-25T05:41:18.649Z,95580.03
2022-08-25T05:43:48.381Z,95591.88
2022-08-25T05:46:17.494Z,95585.56
2022-08-25T05:48:44.238Z,95588.34
2022-08-25T05:51:12.620Z,95594.59
2022-08-25T05:53:42.525Z,95594.41
2022-08-25T05:56:12.599Z,95587.19
2022-08-25T05:58:39.991Z,95584.03
2022-08-25T06:01:07.250Z,95578.50
2022-08-25T06:03:33.910Z,95583.34
2022-08-25T06:06:07.455Z,95587.66
2022-08-25T06:08:34.027Z,95581.81
2022-08-25T06:11:00.650Z,95581.19
2022-08-25T06:13:28.769Z,95581.34
2022-08-25T06:15:59.667Z,95587.84
2022-08-25T06:18:26.322Z,95582.22
2022-08-25T06:20:52.855Z,95586.19
2022-08-25T06:23:19.571Z,95589.75
2022-08-25T06:25:53.924Z,95585.31
2022-08-25T06:28:20.979Z,95586.09
2022-08-25T06:30:47.767Z,95585.09
2022-08-25T06:33:15.017Z,95579.72
2022-08-25T06:35:43.301Z,95576.22
2022-08-25T06:38:10.901Z,95577.81
2022-08-25T06:40:37.806Z,95572.88
2022-08-25T06:43:04.480Z,95572.50
2022-08-25T06:45:30.981Z,95575.03
2022-08-25T06:47:58.440Z,95579.31
2022-08-25T06:50:25.177Z,95579.31
2022-08-25T06:52:51.718Z,95580.31
2022-08-25T06:55:18.494Z,95583.88
2022-08-25T06:57:45.020Z,95582.81
2022-08-25T07:00:12.377Z,95585.38
2022-08-25T07:02:39.163Z,95588.72
2022-08-25T07:05:08.180Z,95590.84
2022-08-25T07:07:43.041Z,95588.78
2022-08-25T07:10:11.904Z,95592.47
2022-08-25T07:12:39.019Z,95590.47
2022-08-25T07:15:21.710Z,95587.47
2022-08-25T07:17:48.897Z,95589.91
2022-08-25T07:20:16.377Z,95587.25
2022-08-25T07:22:43.101Z,95590.09
2022-08-25T07:25:10.191Z,95589.00
2022-08-25T07:27:36.895Z,95586.91
2022-08-25T07:30:06.406Z,95589.88
2022-08-25T07:32:33.003Z,95581.53
2022-08-25T07:34:59.827Z,95578.63
2022-08-25T07:37:47.627Z,95588.03
2022-08-25T07:40:22.459Z,95589.09
2022-08-25T07:42:51.077Z,95592.53
2022-08-25T07:45:20.776Z,95591.72
2022-08-25T07:47:48.111Z,95594.78
2022-08-25T07:50:18.058Z,95593.38
2022-08-25T07:52:44.608Z,95582.66
2022-08-25T07:55:18.787Z,95597.69
2022-08-25T07:57:45.503Z,95599.97
2022-08-25T08:00:17.831Z,95604.50
2022-08-25T08:02:47.267Z,95595.91
2022-08-25T08:05:14.790Z,95599.75
2022-08-25T08:07:43.145Z,95602.78
2022-08-25T08:13:00.157Z,95612.69
2022-08-25T08:15:29.867Z,95604.19
2022-08-25T08:17:57.925Z,95606.25
2022-08-25T08:20:25.188Z,95603.97
2022-08-25T08:22:52.100Z,95604.09
2022-08-25T08:25:24.285Z,95607.09
2022-08-25T08:27:55.364Z,95611.25
2022-08-25T08:30:25.992Z,95603.22
2022-08-25T08:33:09.194Z,95609.63
2022-08-25T08:35:37.242Z,95610.91
2022-08-25T08:38:10.270Z,95612.59
2022-08-25T08:40:58.970Z,95600.66
2022-08-25T08:43:26.848Z,95602.38
2022-08-25T08:45:58.080Z,95598.88
2022-08-25T08:48:56.934Z,95597.34
2022-08-25T08:51:33.446Z,95603.56
2022-08-25T08:54:15.362Z,95604.31
2022-08-25T08:56:48.616Z,95601.63
2022-08-25T08:59:28.847Z,95600.06
2022-08-25T09:02:02.541Z,95598.44
2022-08-25T09:04:38.351Z,95605.41
2022-08-25T09:07:13.008Z,95593.59
2022-08-25T09:09:42.846Z,95587.28
2022-08-25T09:12:39.055Z,95591.06
2022-08-25T09:15:41.234Z,95580.84
2022-08-25T09:18:26.615Z,95588.38
2022-08-25T09:21:08.068Z,95590.06
2022-08-25T09:24:21.985Z,95585.25
2022-08-25T09:27:16.475Z,95582.63
2022-08-25T09:30:10.006Z,95580.47
2022-08-25T09:32:49.046Z,95589.28
2022-08-25T09:35:29.907Z,95583.31
2022-08-25T09:38:00.502Z,95584.47
2022-08-25T09:40:30.335Z,95584.72
2022-08-25T09:43:00.192Z,95589.59
2022-08-25T09:45:37.861Z,95589.59
2022-08-25T09:48:22.359Z,95587.66
2022-08-25T09:50:52.632Z,95582.56
2022-08-25T09:53:21.787Z,95589.56
2022-08-25T09:56:05.935Z,95582.81
2022-08-25T09:58:32.663Z,95573.97
2022-08-25T10:01:05.505Z,95577.28
2022-08-25T10:03:36.816Z,95575.16
2022-08-25T10:06:13.426Z,95576.19
2022-08-25T10:08:43.249Z,95575.69
2022-08-25T10:11:15.350Z,95571.38
2022-08-25T10:13:47.825Z,95569.16
2022-08-25T10:16:27.034Z,95549.78
2022-08-25T10:19:13.378Z,95549.50
2022-08-25T10:21:42.754Z,95550.31
2022-08-25T10:24:19.240Z,95546.00
2022-08-25T10:27:05.994Z,95549.22
2022-08-25T10:30:17.050Z,95545.47
2022-08-25T10:33:20.718Z,95534.66
2022-08-25T10:36:02.336Z,95540.63
2022-08-25T10:38:55.968Z,95530.28
2022-08-25T10:41:46.309Z,95529.19
2022-08-25T10:44:40.870Z,95533.56
2022-08-25T10:47:25.677Z,95533.59
2022-08-25T10:50:03.863Z,95520.13
2022-08-25T10:53:12.457Z,95520.66
2022-08-25T10:55:48.842Z,95513.34
2022-08-25T10:58:23.402Z,95509.31
2022-08-25T11:01:14.944Z,95507.69
2022-08-25T11:04:04.363Z,95505.53
2022-08-25T11:06:54.531Z,95501.22
2022-08-25T11:09:28.367Z,95496.03
2022-08-25T11:12:04.261Z,95492.25
2022-08-25T11:14:46.213Z,95495.19
2022-08-25T11:17:18.742Z,95493.56
2022-08-25T11:19:49.999Z,95483.19
2022-08-25T11:22:27.234Z,95486.19
2022-08-25T11:25:11.780Z,95481.56
2022-08-25T11:27:49.157Z,95478.81
2022-08-25T11:30:18.857Z,95485.59
2022-08-25T11:32:52.009Z,95471.19
2022-08-25T11:35:43.071Z,95474.94
2022-08-25T11:38:15.611Z,95465.97
2022-08-25T11:41:24.552Z,95461.91
2022-08-25T11:44:09.644Z,95459.56
2022-08-25T11:46:52.189Z,95463.56
2022-08-25T11:49:43.773Z,95457.16
2022-08-25T11:52:47.995Z,95462.66
2022-08-25T11:55:29.646Z,95463.47
2022-08-25T11:58:21.000Z,95459.59
2022-08-25T12:00:47.546Z,95456.19
2022-08-25T12:03:32.394Z,95459.44
2022-08-25T12:06:19.089Z,95462.50
2022-08-25T12:09:00.999Z,95456.06
2022-08-25T12:11:46.298Z,95456.00
2022-08-25T12:14:22.242Z,95454.97
2022-08-25T12:16:51.717Z,95454.28
2022-08-25T12:19:29.792Z,95461.41
2022-08-25T12:22:19.151Z,95457.53
2022-08-25T12:24:57.807Z,95458.63
2022-08-25T12:27:33.548Z,95458.75
2022-08-25T12:30:05.129Z,95452.31
2022-08-25T12:33:06.910Z,95451.44
2022-08-25T12:35:51.232Z,95451.78
2022-08-25T12:38:35.024Z,95448.06
2022-08-25T12:41:12.280Z,95443.13
2022-08-25T12:43:45.240Z,95441.56
2022-08-25T12:46:23.607Z,95436.97
2022-08-25T12:48:59.225Z,95432.72
2022-08-25T12:51:52.021Z,95431.81
2022-08-25T12:54:58.154Z,95426.13
2022-08-25T12:57:40.275Z,95421.81
2022-08-25T13:03:21.120Z,95415.72
2022-08-25T13:06:18.254Z,95409.63
2022-08-25T13:09:12.350Z,95396.94
2022-08-25T13:12:07.191Z,95410.56
2022-08-25T13:14:39.311Z,95404.22
2022-08-25T13:17:07.082Z,95397.50
2022-08-25T13:19:37.397Z,95402.44
2022-08-25T13:22:16.423Z,95397.38
2022-08-25T13:24:47.599Z,95393.28
2022-08-25T13:27:28.167Z,95388.53
2022-08-25T13:29:58.363Z,95381.03
2022-08-25T13:32:32.342Z,95378.13
2022-08-25T13:35:32.411Z,95375.97
2022-08-25T13:38:16.559Z,95372.84
2022-08-25T13:40:44.316Z,95373.25
2022-08-25T13:43:13.946Z,95379.50
2022-08-25T13:45:47.687Z,95362.88
2022-08-25T13:48:37.805Z,95361.44
2022-08-25T13:51:31.361Z,95360.94
2022-08-25T13:54:02.194Z,95367.25
2022-08-25T13:56:38.713Z,95365.13
2022-08-25T13:59:21.692Z,95358.72
2022-08-25T14:01:50.118Z,95356.94
2022-08-25T14:04:31.039Z,95359.88
2022-08-25T14:07:21.664Z,95362.16
2022-08-25T14:09:50.455Z,95351.53
2022-08-25T14:12:34.631Z,95358.50
2022-08-25T14:15:09.538Z,95352.59
2022-08-25T14:17:40.673Z,95349.97
2022-08-25T14:20:20.879Z,95344.25
2022-08-25T14:22:54.233Z,95347.84
2022-08-25T14:25:20.846Z,95345.44
2022-08-25T14:28:13.632Z,95352.25
2022-08-25T14:30:53.208Z,95344.09
2022-08-25T14:33:24.155Z,95338.78
2022-08-25T14:35:53.734Z,95333.97
2022-08-25T14:38:21.939Z,95338.16
2022-08-25T14:40:50.313Z,95330.13
2022-08-25T14:43:17.316Z,95335.56
2022-08-25T14:45:48.075Z,95338.63
2022-08-25T14:48:26.529Z,95328.06
2022-08-25T14:50:55.893Z,95327.72
2022-08-25T14:53:22.402Z,95330.53
2022-08-25T14:55:49.314Z,95326.19
2022-08-25T14:58:18.044Z,95322.47
2022-08-25T15:00:52.624Z,95320.72
2022-08-25T15:03:38.048Z,95325.50
2022-08-25T15:06:06.002Z,95318.94
2022-08-25T15:08:33.459Z,95316.75
2022-08-25T15:11:00.578Z,95312.94
2022-08-25T15:13:27.269Z,95316.81
2022-08-25T15:15:58.096Z,95311.44
2022-08-25T15:18:25.077Z,95309.81
2022-08-25T15:20:51.695Z,95305.75
2022-08-25T15:23:19.216Z,95305.63
2022-08-25T15:25:48.845Z,95298.72
2022-08-25T15:28:21.798Z,95293.41
2022-08-25T15:30:49.591Z,95295.78
2022-08-25T15:33:16.701Z,95292.91
2022-08-25T15:35:43.711Z,95302.97
2022-08-25T15:38:12.432Z,95294.09
2022-08-25T15:40:39.073Z,95302.06
2022-08-25T15:43:06.022Z,95297.59
2022-08-25T15:45:33.706Z,95304.56
2022-08-25T15:48:01.029Z,95292.94
2022-08-25T15:50:27.719Z,95287.50
2022-08-25T15:52:54.224Z,95290.44
2022-08-25T15:55:21.091Z,95287.34
2022-08-25T15:57:49.738Z,95283.16
2022-08-25T16:00:17.884Z,95284.03
2022-08-25T16:02:45.405Z,95283.22
2022-08-25T16:05:13.712Z,95285.28
2022-08-25T16:07:42.850Z,95285.31
2022-08-25T16:10:10.037Z,95292.78
2022-08-25T16:12:37.502Z,95283.19
2022-08-25T16:15:04.339Z,95286.66
2022-08-25T16:17:30.815Z,95280.38
2022-08-25T16:19:57.367Z,95275.72
2022-08-25T16:22:24.091Z,95276.31
2022-08-25T16:24:52.677Z,95278.72
2022-08-25T16:27:19.864Z,95277.38
2022-08-25T16:29:46.599Z,95272.81
2022-08-25T16:32:14.586Z,95270.25
2022-08-25T16:34:42.372Z,95266.06
2022-08-25T16:37:09.264Z,95260.78
2022-08-25T16:39:36.618Z,95263.00
2022-08-25T16:42:06.797Z,95257.13
2022-08-25T16:44:33.519Z,95265.81
2022-08-25T16:47:00.054Z,95262.97
2022-08-25T16:49:26.655Z,95263.41
2022-08-25T16:51:57.110Z,95252.00
2022-08-25T16:54:25.511Z,95259.59
2022-08-25T16:56:54.792Z,95260.53
2022-08-25T16:59:23.466Z,95258.34
2022-08-25T17:01:50.969Z,95261.34
2022-08-25T17:04:17.724Z,95256.56
2022-08-25T17:06:49.534Z,95251.09
2022-08-25T17:09:23.987Z,95254.03
2022-08-25T17:11:51.640Z,95251.53
2022-08-25T17:14:21.341Z,95249.63
2022-08-25T17:16:47.969Z,95257.41
2022-08-25T17:19:15.667Z,95245.75
2022-08-25T17:21:45.137Z,95256.28
2022-08-25T17:24:12.564Z,95247.97
2022-08-25T17:26:41.928Z,95255.59
2022-08-25T17:29:09.426Z,95250.03
2022-08-25T17:31:36.226Z,95258.13
2022-08-25T17:34:02.926Z,95251.91
2022-08-25T17:36:30.958Z,95254.81
2022-08-25T17:38:57.511Z,95251.16
2022-08-25T17:41:24.761Z,95252.38
2022-08-25T17:43:51.343Z,95252.03
2022-08-25T17:46:17.946Z,95241.94
2022-08-25T17:48:44.899Z,95261.19
2022-08-25T17:51:12.034Z,95261.53
2022-08-25T17:53:38.941Z,95258.63
2022-08-25T17:56:08.989Z,95252.53
2022-08-25T17:58:36.782Z,95251.56
2022-08-25T18:01:05.482Z,95255.38
2022-08-25T18:03:32.585Z,95249.59
2022-08-25T18:05:59.224Z,95263.63
2022-08-25T18:08:32.210Z,95251.75
2022-08-25T18:11:03.552Z,95261.84
2022-08-25T18:13:30.344Z,95259.06
2022-08-25T18:15:57.434Z,95257.56
2022-08-25T18:18:24.251Z,95263.88
2022-08-25T18:20:51.013Z,95265.44
2022-08-25T18:23:17.705Z,95268.59
2022-08-25T18:25:44.399Z,95268.38
2022-08-25T18:28:11.669Z,95272.47
2022-08-25T18:30:38.900Z,95277.53
2022-08-25T18:33:05.465Z,95278.44
2022-08-25T18:35:32.670Z,95281.59
2022-08-25T18:37:59.236Z,95286.84
2022-08-25T18:40:26.656Z,95290.09
2022-08-25T18:42:59.242Z,95296.13
2022-08-25T18:45:40.245Z,95295.53
2022-08-25T18:48:07.435Z,95304.94
2022-08-25T18:50:36.903Z,95297.38
2022-08-25T18:53:03.774Z,95303.16
2022-08-25T18:55:33.118Z,95311.53
2022-08-25T18:57:59.665Z,95314.13
2022-08-25T19:00:29.029Z,95317.88
2022-08-25T19:02:57.994Z,95324.78
2022-08-25T19:05:30.087Z,95326.09
2022-08-25T19:07:56.599Z,95331.03
2022-08-25T19:10:24.061Z,95323.44
2022-08-25T19:12:52.157Z,95326.78
2022-08-25T19:15:18.678Z,95338.38
2022-08-25T19:17:52.673Z,95337.09
2022-08-25T19:20:21.654Z,95332.72
2022-08-25T19:22:48.768Z,95333.22
2022-08-25T19:25:15.751Z,95340.13
2022-08-25T19:27:43.146Z,95339.41
2022-08-25T19:30:11.822Z,95345.91
2022-08-25T19:32:41.105Z,95336.47
2022-08-25T19:35:14.990Z,95337.03
2022-08-25T19:37:41.630Z,95341.19
2022-08-25T19:40:09.473Z,95340.50
2022-08-25T19:42:38.478Z,95338.91
2022-08-25T19:45:12.027Z,95339.56
2022-08-25T19:47:39.280Z,95342.13
2022-08-25T19:50:07.317Z,95347.47
2022-08-25T19:52:33.831Z,95341.78
2022-08-25T19:55:00.829Z,95347.84
2022-08-25T19:57:28.359Z,95344.22
2022-08-25T20:00:15.029Z,95345.44
2022-08-25T20:02:42.720Z,95350.38
2022-08-25T20:05:09.438Z,95344.78
2022-08-25T20:07:36.566Z,95348.00
2022-08-25T20:10:06.343Z,95358.44
2022-08-25T20:12:33.084Z,95358.25
2022-08-25T20:15:01.803Z,95363.00
2022-08-25T20:17:28.854Z,95364.03
2022-08-25T20:19:58.504Z,95361.69
2022-08-25T20:22:27.878Z,95369.75
2022-08-25T20:25:01.122Z,95361.00
2022-08-25T20:27:34.037Z,95372.66
2022-08-25T20:30:02.716Z,95375.59
2022-08-25T20:32:30.242Z,95380.72
2022-08-25T20:34:56.747Z,95389.13
2022-08-25T20:37:24.332Z,95391.84
2022-08-25T20:39:51.592Z,95389.47
2022-08-25T20:42:18.272Z,95385.97
2022-08-25T20:44:44.811Z,95391.63
2022-08-25T20:47:11.320Z,95387.28
2022-08-25T20:49:38.130Z,95384.88
2022-08-25T20:52:05.886Z,95394.91
2022-08-25T20:54:33.918Z,95392.56
2022-08-25T20:57:00.645Z,95391.63
2022-08-25T20:59:29.039Z,95403.28
2022-08-25T21:01:56.130Z,95400.88
2022-08-25T21:04:25.488Z,95401.44
2022-08-25T21:06:52.924Z,95397.44
2022-08-25T21:09:22.872Z,95396.41
2022-08-25T21:11:51.829Z,95392.66
2022-08-25T21:14:18.904Z,95393.00
2022-08-25T21:16:45.614Z,95400.41
2022-08-25T21:19:26.317Z,95395.38
2022-08-25T21:21:54.371Z,95400.81
2022-08-25T21:24:28.164Z,95400.00
2022-08-25T21:26:57.234Z,95393.81
2022-08-25T21:29:28.478Z,95402.41
2022-08-25T21:31:56.671Z,95394.81
2022-08-25T21:34:23.145Z,95402.50
2022-08-25T21:36:49.972Z,95393.88
2022-08-25T21:39:17.323Z,95400.84
2022-08-25T21:41:44.144Z,95406.28
2022-08-25T21:44:13.282Z,95411.38
2022-08-25T21:46:40.840Z,95400.00
2022-08-25T21:49:07.720Z,95408.34
2022-08-25T21:51:41.844Z,95404.59
2022-08-25T21:54:12.684Z,95402.94
2022-08-25T21:56:51.667Z,95396.75
2022-08-25T21:59:21.676Z,95397.22
2022-08-25T22:01:48.200Z,95401.66
2022-08-25T22:04:15.348Z,95401.09
2022-08-25T22:06:41.972Z,95397.31
2022-08-25T22:09:12.823Z,95401.66
2022-08-25T22:11:42.054Z,95394.16
2022-08-25T22:14:10.267Z,95398.94
2022-08-25T22:16:38.226Z,95394.31
2022-08-25T22:19:06.521Z,95398.59
2022-08-25T22:21:33.875Z,95394.81
2022-08-25T22:24:01.015Z,95389.53
2022-08-25T22:26:31.811Z,95383.31
2022-08-25T22:28:59.329Z,95392.75
2022-08-25T22:31:26.640Z,95389.88
2022-08-25T22:33:54.028Z,95394.56
2022-08-25T22:36:27.857Z,95391.28
2022-08-25T22:38:55.896Z,95391.66
2022-08-25T22:41:24.790Z,95390.84
2022-08-25T22:43:52.933Z,95381.94
2022-08-25T22:46:22.000Z,95385.44
2022-08-25T22:48:50.209Z,95383.56
2022-08-25T22:51:24.212Z,95383.09
2022-08-25T22:53:51.414Z,95387.16
2022-08-25T22:56:29.565Z,95392.28
2022-08-25T22:59:02.102Z,95382.06
2022-08-25T23:01:29.317Z,95376.09
2022-08-25T23:03:55.946Z,95379.78
2022-08-25T23:06:24.584Z,95380.28
2022-08-25T23:08:53.500Z,95379.94
2022-08-25T23:11:22.214Z,95377.94
2022-08-25T23:13:49.262Z,95378.44
2022-08-25T23:16:17.660Z,95376.22
2022-08-25T23:18:44.238Z,95368.63
2022-08-25T23:21:11.430Z,95380.44
2022-08-25T23:23:37.986Z,95374.72
2022-08-25T23:26:04.732Z,95376.56
2022-08-25T23:28:31.412Z,95368.44
2022-08-25T23:30:59.344Z,95371.09
2022-08-25T23:33:26.450Z,95374.31
2022-08-25T23:36:01.194Z,95375.38
2022-08-25T23:38:29.179Z,95382.44
2022-08-25T23:40:55.998Z,95374.31
2022-08-25T23:43:22.675Z,95372.13
2022-08-25T23:45:50.646Z,95374.84
2022-08-25T23:48:18.757Z,95380.53
2022-08-25T23:50:47.942Z,95370.00
2022-08-25T23:53:20.781Z,95370.31
2022-08-25T23:55:53.041Z,95369.22
2022-08-25T23:58:20.540Z,95372.38
